TFM - Tactical Decision Aid (Experimental) INFO Settings

ID: Runway Winds: METAR Board: Map:

Kclt - Charlotte-Douglas Intl

Updated at: 0019 UTC 02 Oct 2014
Latest TAF at: 2328 UTC 01 Oct 2014

TAF Board

Time2352Z02/01Z02/02Z02/03Z02/04Z02/05Z02/06Z02/07Z02/08Z02/09Z02/10Z02/11Z02/12Z02/13Z
TypeOBSPRVLPRVLPRVLPRVLPRVLPRVLPRVLPRVLPRVLPRVLPRVLPRVLPRVL
VIS10>6>6>6>6>6>66666666
CIG--------------60606060606060
CoverSCTSCTSCTSCTSCTSCTSCTBKNBKNBKNBKNBKNBKNBKN
FltCat--VFRVFRVFRVFRVFRVFRVFRVFRVFRVFRVFRVFRVFR
WX--------------BRBRBRBRBRBRBR
WDirVRB170170170170170170170170170170170170170
WSpd03333332222222
WGst----------------------------
TAF
KCLT 012328Z 0200/0224 17003KT P6SM SCT060
  FM020700 17002KT 6SM BR BKN060
  FM021400 19006KT P6SM SCT050


METAR
KCLT 012352Z 00000KT 10SM FEW055 SCT250 22/14 A3000 RMK AO2 SLP155 T02170144 10289 20211 51007 $
KCLT 012252Z 34003KT 10SM FEW055 SCT250 26/14 A3000 RMK AO2 SLP151 T02560139 $

TAF/METAR Board Legend

Hazard VFR MVFR IFR LIFR
Visibility (sm) >5 3≤X≤5 1≤X<3 <1
Ceiling (100 ft) >30 10≤X≤30 5≤X<10 <5
Wind Speed (kt) <10 10≤X<20 20≤X<30 ≥30
Wind Gust (kt) <15 15≤X<25 25≤X<35 ≥35
Weather No Wx Reported VCTS,-TS,-FZRA TS,FZRA +TS,+FZRA




Page loaded:  00:19 UTC  |   05:19 PM Pacific  |   06:19 PM Mountain  |   07:19 PM Central  |   08:19 PM Eastern

 

ADVISORIES

FORECASTS

FORECASTS

OBSERVATIONS

USER TOOLS

ABOUT US